createdAt,value
2022-08-27T00:02:09.630Z,97165.59
2022-08-27T00:04:38.885Z,97163.85
2022-08-27T00:07:08.995Z,97168.14
2022-08-27T00:09:38.247Z,97165.06
2022-08-27T00:12:07.029Z,97162.40
2022-08-27T00:14:36.696Z,97161.17
2022-08-27T00:17:06.726Z,97158.42
2022-08-27T00:19:36.731Z,97159.52
2022-08-27T00:22:06.002Z,97158.48
2022-08-27T00:24:34.736Z,97161.05
2022-08-27T00:27:06.466Z,97160.84
2022-08-27T00:29:36.487Z,97158.77
2022-08-27T00:32:04.840Z,97157.80
2022-08-27T00:34:32.967Z,97160.66
2022-08-27T00:37:00.932Z,97157.72
2022-08-27T00:39:29.062Z,97156.80
2022-08-27T00:41:57.144Z,97154.19
2022-08-27T00:44:25.223Z,97156.08
2022-08-27T00:46:57.062Z,97148.79
2022-08-27T00:49:32.128Z,97149.02
2022-08-27T00:52:11.993Z,97149.40
2022-08-27T00:54:41.346Z,97148.69
2022-08-27T00:57:09.562Z,97150.65
2022-08-27T00:59:38.241Z,97146.70
2022-08-27T01:02:21.475Z,97150.41
2022-08-27T01:05:03.220Z,97148.41
2022-08-27T01:07:36.474Z,97148.70
2022-08-27T01:10:07.361Z,97150.70
2022-08-27T01:12:36.321Z,97149.84
2022-08-27T01:15:10.980Z,97145.89
2022-08-27T01:17:43.671Z,97146.06
2022-08-27T01:20:20.605Z,97149.80
2022-08-27T01:23:01.955Z,97151.15
2022-08-27T01:25:30.972Z,97151.56
2022-08-27T01:28:01.180Z,97147.11
2022-08-27T01:30:29.359Z,97146.91
2022-08-27T01:32:57.871Z,97145.41
2022-08-27T01:35:26.242Z,97145.27
2022-08-27T01:37:57.231Z,97146.34
2022-08-27T01:40:25.748Z,97147.23
2022-08-27T01:42:56.791Z,97147.31
2022-08-27T01:45:29.024Z,97150.98
2022-08-27T01:47:59.015Z,97151.59
2022-08-27T01:50:32.008Z,97149.18
2022-08-27T01:53:14.067Z,97150.76
2022-08-27T01:55:47.678Z,97156.19
2022-08-27T01:58:18.683Z,97156.02
2022-08-27T02:00:54.713Z,97155.72
2022-08-27T02:03:25.274Z,97157.90
2022-08-27T02:05:54.662Z,97155.21
2022-08-27T02:08:22.922Z,97153.16
2022-08-27T02:10:51.762Z,97158.21
2022-08-27T02:13:19.877Z,97160.50
2022-08-27T02:15:47.996Z,97166.11
2022-08-27T02:18:16.615Z,97166.94
2022-08-27T02:20:46.486Z,97172.47
2022-08-27T02:23:15.785Z,97171.80
2022-08-27T02:25:45.435Z,97173.30
2022-08-27T02:28:14.161Z,97174.80
2022-08-27T02:30:42.204Z,97178.17
2022-08-27T02:33:10.506Z,97181.64
2022-08-27T02:35:40.699Z,97185.80
2022-08-27T02:38:08.799Z,97185.52
2022-08-27T02:40:37.684Z,97181.55
2022-08-27T02:43:06.890Z,97179.37
2022-08-27T02:45:37.599Z,97179.55
2022-08-27T02:48:07.918Z,97176.36
2022-08-27T02:50:36.941Z,97181.82
2022-08-27T02:53:06.372Z,97178.72
2022-08-27T02:55:34.428Z,97187.48
2022-08-27T02:58:05.225Z,97181.94
2022-08-27T03:00:33.672Z,97185.54
2022-08-27T03:03:02.929Z,97187.91
2022-08-27T03:05:31.038Z,97189.54
2022-08-27T03:07:59.963Z,97190.86
2022-08-27T03:10:28.024Z,97193.52
2022-08-27T03:12:57.366Z,97190.80
2022-08-27T03:15:25.494Z,97190.29
2022-08-27T03:18:12.173Z,97191.88
2022-08-27T03:20:44.623Z,97194.17
2022-08-27T03:23:14.844Z,97198.31
2022-08-27T03:25:51.618Z,97198.56
2022-08-27T03:28:26.154Z,97187.27
2022-08-27T03:31:01.424Z,97187.91
2022-08-27T03:33:35.917Z,97191.27
2022-08-27T03:36:06.383Z,97191.92
2022-08-27T03:38:35.927Z,97194.77
2022-08-27T03:41:05.989Z,97198.50
2022-08-27T03:43:34.101Z,97198.77
2022-08-27T03:46:02.597Z,97200.96
2022-08-27T03:48:32.292Z,97204.44
2022-08-27T03:51:08.731Z,97200.91
2022-08-27T03:53:38.745Z,97196.51
2022-08-27T03:56:08.339Z,97201.66
2022-08-27T03:58:37.764Z,97199.58
2022-08-27T04:01:08.134Z,97203.09
2022-08-27T04:03:36.462Z,97200.71
2022-08-27T04:06:04.773Z,97204.44
2022-08-27T04:08:33.238Z,97203.52
2022-08-27T04:11:06.139Z,97210.77
2022-08-27T04:13:34.187Z,97208.17
2022-08-27T04:16:02.219Z,97215.70
2022-08-27T04:18:30.425Z,97211.66
2022-08-27T04:20:58.642Z,97216.49
2022-08-27T04:23:26.761Z,97208.74
2022-08-27T04:25:54.722Z,97215.43
2022-08-27T04:28:24.982Z,97213.59
2022-08-27T04:30:52.964Z,97214.83
2022-08-27T04:33:21.071Z,97214.69
2022-08-27T04:36:07.857Z,97217.40
2022-08-27T04:38:36.768Z,97212.83
2022-08-27T04:41:27.646Z,97213.71
2022-08-27T04:43:57.990Z,97210.73
2022-08-27T04:46:32.239Z,97211.09
2022-08-27T04:49:03.743Z,97214.17
2022-08-27T04:51:40.155Z,97216.95
2022-08-27T04:54:09.527Z,97215.42
2022-08-27T04:56:39.172Z,97213.08
2022-08-27T04:59:10.115Z,97209.73
2022-08-27T05:01:40.508Z,97210.52
2022-08-27T05:04:11.154Z,97211.02
2022-08-27T05:06:39.111Z,97206.55
2022-08-27T05:09:07.087Z,97210.05
2022-08-27T05:11:35.465Z,97208.08
2022-08-27T05:14:08.890Z,97207.27
2022-08-27T05:16:39.226Z,97207.09
2022-08-27T05:19:10.445Z,97215.41
2022-08-27T05:21:40.270Z,97217.29
2022-08-27T05:24:08.455Z,97217.76
2022-08-27T05:26:37.566Z,97215.46
2022-08-27T05:29:06.764Z,97212.41
2022-08-27T05:31:35.627Z,97212.50
2022-08-27T05:34:10.583Z,97208.55
2022-08-27T05:36:48.566Z,97210.48
2022-08-27T05:39:17.621Z,97212.87
2022-08-27T05:41:45.782Z,97213.27
2022-08-27T05:47:03.850Z,97209.17
2022-08-27T05:49:32.013Z,97206.29
2022-08-27T05:52:00.079Z,97206.21
2022-08-27T05:54:28.155Z,97209.05
2022-08-27T05:56:56.117Z,97203.36
2022-08-27T05:59:42.558Z,97200.48
2022-08-27T06:02:11.161Z,97196.61
2022-08-27T06:04:39.395Z,97198.04
2022-08-27T06:07:10.713Z,97200.98
2022-08-27T06:09:40.084Z,97201.00
2022-08-27T06:12:08.500Z,97202.05
2022-08-27T06:14:38.308Z,97194.30
2022-08-27T06:17:06.631Z,97194.18
2022-08-27T06:19:36.708Z,97195.14
2022-08-27T06:22:10.016Z,97193.11
2022-08-27T06:24:41.999Z,97190.25
2022-08-27T06:27:16.352Z,97192.92
2022-08-27T06:29:45.171Z,97188.45
2022-08-27T06:32:14.953Z,97184.73
2022-08-27T06:34:43.263Z,97187.90
2022-08-27T06:37:11.512Z,97185.17
2022-08-27T06:39:42.124Z,97183.98
2022-08-27T06:42:12.641Z,97189.75
2022-08-27T06:44:42.118Z,97186.20
2022-08-27T06:47:11.002Z,97188.80
2022-08-27T06:49:41.234Z,97184.70
2022-08-27T06:52:09.463Z,97186.21
2022-08-27T06:54:40.338Z,97183.87
2022-08-27T06:57:09.039Z,97182.86
2022-08-27T06:59:38.699Z,97181.27
2022-08-27T07:02:08.942Z,97176.30
2022-08-27T07:04:37.016Z,97181.50
2022-08-27T07:07:05.173Z,97181.45
2022-08-27T07:09:34.228Z,97181.72
2022-08-27T07:12:03.558Z,97182.38
2022-08-27T07:14:37.551Z,97178.16
2022-08-27T07:17:09.785Z,97177.52
2022-08-27T07:19:41.115Z,97180.48
2022-08-27T07:22:12.482Z,97179.73
2022-08-27T07:24:41.279Z,97178.95
2022-08-27T07:27:09.571Z,97178.29
2022-08-27T07:29:38.176Z,97176.20
2022-08-27T07:32:07.047Z,97176.30
2022-08-27T07:34:35.405Z,97175.51
2022-08-27T07:37:05.020Z,97173.70
2022-08-27T07:39:34.371Z,97169.74
2022-08-27T07:42:20.978Z,97171.44
2022-08-27T07:44:50.137Z,97167.39
2022-08-27T07:47:18.805Z,97165.55
2022-08-27T07:49:46.928Z,97165.52
2022-08-27T07:52:17.578Z,97167.39
2022-08-27T07:54:46.384Z,97164.20
2022-08-27T07:57:14.441Z,97162.39
2022-08-27T07:59:43.674Z,97164.80
2022-08-27T08:02:12.884Z,97164.30
2022-08-27T08:04:41.224Z,97160.93
2022-08-27T08:07:09.712Z,97155.89
2022-08-27T08:09:39.902Z,97156.75
2022-08-27T08:12:08.415Z,97155.25
2022-08-27T08:14:37.659Z,97156.05
2022-08-27T08:17:06.402Z,97152.13
2022-08-27T08:19:40.443Z,97150.58
2022-08-27T08:22:10.973Z,97151.56
2022-08-27T08:24:39.888Z,97152.12
2022-08-27T08:27:08.262Z,97149.96
2022-08-27T08:29:36.917Z,97149.89
2022-08-27T08:32:07.080Z,97147.00
2022-08-27T08:34:36.186Z,97148.00
2022-08-27T08:37:06.909Z,97148.27
2022-08-27T08:39:37.152Z,97151.52
2022-08-27T08:42:08.370Z,97151.86
2022-08-27T08:44:39.343Z,97150.56
2022-08-27T08:47:17.327Z,97151.01
2022-08-27T08:50:08.424Z,97148.23
2022-08-27T08:52:42.935Z,97149.19
2022-08-27T08:55:29.273Z,97147.43
2022-08-27T08:58:16.959Z,97149.86
2022-08-27T09:00:49.019Z,97144.61
2022-08-27T09:03:17.457Z,97143.84
2022-08-27T09:06:01.869Z,97139.33
2022-08-27T09:08:41.333Z,97140.05
2022-08-27T09:11:13.300Z,97137.45
2022-08-27T09:13:48.306Z,97134.66
2022-08-27T09:16:16.730Z,97136.43
2022-08-27T09:18:45.871Z,97133.30
2022-08-27T09:21:33.144Z,97132.31
2022-08-27T09:24:04.567Z,97128.34
2022-08-27T09:26:38.413Z,97126.34
2022-08-27T09:29:17.238Z,97124.97
2022-08-27T09:32:05.310Z,97120.01
2022-08-27T09:34:37.401Z,97114.95
2022-08-27T09:37:15.626Z,97116.17
2022-08-27T09:39:53.938Z,97119.05
2022-08-27T09:42:53.347Z,97115.90
2022-08-27T09:45:36.115Z,97111.53
2022-08-27T09:48:07.763Z,97111.30
2022-08-27T09:50:47.820Z,97113.10
2022-08-27T09:53:25.550Z,97115.56
2022-08-27T09:56:03.165Z,97114.16
2022-08-27T09:58:35.620Z,97113.98
2022-08-27T10:01:05.680Z,97111.41
2022-08-27T10:03:34.309Z,97113.92
2022-08-27T10:06:02.572Z,97112.89
2022-08-27T10:08:38.531Z,97108.61
2022-08-27T10:11:29.800Z,97108.91
2022-08-27T10:14:24.858Z,97109.23
2022-08-27T10:17:05.378Z,97107.80
2022-08-27T10:20:09.202Z,97111.71
2022-08-27T10:22:58.124Z,97110.67
2022-08-27T10:25:26.555Z,97107.86
2022-08-27T10:28:09.740Z,97103.73
2022-08-27T10:30:59.803Z,97106.17
2022-08-27T10:33:44.749Z,97106.35
2022-08-27T10:36:32.210Z,97103.20
2022-08-27T10:39:24.269Z,97100.52
2022-08-27T10:41:59.620Z,97100.56
2022-08-27T10:44:45.545Z,97102.55
2022-08-27T10:47:22.799Z,97099.95
2022-08-27T10:50:04.439Z,97101.02
2022-08-27T10:52:51.664Z,97101.23
2022-08-27T10:55:24.332Z,97096.03
2022-08-27T10:58:21.178Z,97097.02
2022-08-27T11:00:56.686Z,97096.71
2022-08-27T11:03:37.770Z,97092.90
2022-08-27T11:06:45.958Z,97092.14
2022-08-27T11:09:22.057Z,97090.02
2022-08-27T11:12:14.238Z,97092.48
2022-08-27T11:14:52.625Z,97091.29
2022-08-27T11:17:46.315Z,97087.52
2022-08-27T11:20:22.419Z,97087.48
2022-08-27T11:23:04.710Z,97088.20
2022-08-27T11:25:39.510Z,97086.32
2022-08-27T11:28:11.755Z,97090.05
2022-08-27T11:30:45.848Z,97086.11
2022-08-27T11:33:21.072Z,97084.38
2022-08-27T11:36:20.481Z,97083.71
2022-08-27T11:39:40.965Z,97080.23
2022-08-27T11:42:19.323Z,97078.39
2022-08-27T11:44:50.160Z,97073.00
2022-08-27T11:47:26.526Z,97075.02
2022-08-27T11:50:04.572Z,97073.47
2022-08-27T11:52:38.387Z,97072.86
2022-08-27T11:55:21.716Z,97069.27
2022-08-27T11:58:04.687Z,97065.77
2022-08-27T12:00:39.566Z,97063.41
2022-08-27T12:03:10.429Z,97059.16
2022-08-27T12:05:49.147Z,97054.79
2022-08-27T12:08:23.067Z,97049.64
2022-08-27T12:11:04.408Z,97050.51
2022-08-27T12:14:00.959Z,97048.34
2022-08-27T12:16:48.138Z,97043.89
2022-08-27T12:19:49.791Z,97038.36
2022-08-27T12:22:30.300Z,97040.03
2022-08-27T12:24:59.897Z,97038.60
2022-08-27T12:27:34.888Z,97034.59
2022-08-27T12:30:30.276Z,97035.98
2022-08-27T12:33:04.880Z,97034.89
2022-08-27T12:35:50.767Z,97034.02
2022-08-27T12:38:35.314Z,97037.11
2022-08-27T12:41:09.164Z,97036.02
2022-08-27T12:43:42.201Z,97036.69
2022-08-27T12:46:20.141Z,97036.41
2022-08-27T12:49:09.945Z,97038.89
2022-08-27T12:51:49.330Z,97044.08
2022-08-27T12:54:58.185Z,97042.89
2022-08-27T12:57:58.212Z,97038.39
2022-08-27T13:00:36.069Z,97036.09
2022-08-27T13:03:14.280Z,97035.18
2022-08-27T13:05:50.953Z,97037.45
2022-08-27T13:08:22.128Z,97040.16
2022-08-27T13:10:54.515Z,97038.50
2022-08-27T13:13:25.794Z,97036.16
2022-08-27T13:15:57.156Z,97037.35
2022-08-27T13:18:30.052Z,97039.61
2022-08-27T13:21:04.658Z,97037.36
2022-08-27T13:23:33.793Z,97040.94
2022-08-27T13:26:09.099Z,97038.73
2022-08-27T13:28:40.812Z,97041.88
2022-08-27T13:31:11.349Z,97040.56
2022-08-27T13:33:41.312Z,97041.09
2022-08-27T13:36:10.485Z,97040.08
2022-08-27T13:38:47.891Z,97042.88
2022-08-27T13:41:27.723Z,97047.30
2022-08-27T13:43:59.558Z,97046.44
2022-08-27T13:46:32.516Z,97049.48
2022-08-27T13:49:01.407Z,97051.66
2022-08-27T13:51:33.236Z,97053.32
2022-08-27T13:54:13.686Z,97049.23
2022-08-27T13:56:51.428Z,97043.98
2022-08-27T13:59:22.218Z,97043.56
2022-08-27T14:02:02.661Z,97040.92
2022-08-27T14:04:39.552Z,97039.48
2022-08-27T14:07:17.711Z,97037.95
2022-08-27T14:10:08.475Z,97036.10
2022-08-27T14:12:40.368Z,97036.38
2022-08-27T14:15:30.439Z,97038.55
2022-08-27T14:17:58.935Z,97032.47
2022-08-27T14:20:27.869Z,97032.02
2022-08-27T14:22:56.308Z,97035.64
2022-08-27T14:25:24.621Z,97031.06
2022-08-27T14:27:55.218Z,97031.03
2022-08-27T14:30:29.013Z,97038.09
2022-08-27T14:33:00.739Z,97037.37
2022-08-27T14:35:32.499Z,97038.88
2022-08-27T14:38:17.740Z,97037.34
2022-08-27T14:40:47.741Z,97036.29
2022-08-27T14:43:16.394Z,97034.20
2022-08-27T14:45:46.378Z,97032.52
2022-08-27T14:48:28.875Z,97040.34
2022-08-27T14:50:59.275Z,97041.66
2022-08-27T14:53:28.075Z,97034.73
2022-08-27T14:55:59.086Z,97034.77
2022-08-27T14:58:27.394Z,97034.26
2022-08-27T15:00:58.276Z,97034.02
2022-08-27T15:03:28.871Z,97036.44
2022-08-27T15:05:57.038Z,97036.21
2022-08-27T15:08:29.371Z,97030.89
2022-08-27T15:11:00.525Z,97027.40
2022-08-27T15:13:30.200Z,97026.38
2022-08-27T15:15:58.399Z,97024.58
2022-08-27T15:18:26.531Z,97023.59
2022-08-27T15:20:54.612Z,97022.54
2022-08-27T15:23:22.875Z,97024.34
2022-08-27T15:25:50.931Z,97027.66
2022-08-27T15:28:19.339Z,97025.94
2022-08-27T15:30:47.774Z,97027.09
2022-08-27T15:33:16.040Z,97027.29
2022-08-27T15:35:44.495Z,97028.66
2022-08-27T15:38:13.008Z,97025.59
2022-08-27T15:40:42.530Z,97020.11
2022-08-27T15:43:13.088Z,97021.53
2022-08-27T15:45:41.306Z,97022.75
2022-08-27T15:48:10.825Z,97022.46
2022-08-27T15:50:39.320Z,97021.84
2022-08-27T15:53:09.244Z,97024.77
2022-08-27T15:55:44.596Z,97026.04
2022-08-27T15:58:13.322Z,97022.48
2022-08-27T16:00:43.119Z,97021.64
2022-08-27T16:03:14.064Z,97023.57
2022-08-27T16:05:44.926Z,97023.60
2022-08-27T16:08:14.599Z,97024.27
2022-08-27T16:10:42.637Z,97025.41
2022-08-27T16:13:11.361Z,97026.69
2022-08-27T16:15:41.190Z,97026.82
2022-08-27T16:18:10.096Z,97029.70
2022-08-27T16:20:38.857Z,97026.48
2022-08-27T16:23:10.084Z,97028.86
2022-08-27T16:25:40.427Z,97030.92
2022-08-27T16:28:08.750Z,97032.55
2022-08-27T16:30:37.102Z,97035.83
2022-08-27T16:33:06.921Z,97039.29
2022-08-27T16:35:35.070Z,97043.06
2022-08-27T16:38:04.433Z,97042.13
2022-08-27T16:40:36.449Z,97048.13
2022-08-27T16:43:05.736Z,97048.79
2022-08-27T16:45:34.078Z,97051.35
2022-08-27T16:48:20.916Z,97051.58
2022-08-27T16:50:49.047Z,97053.79
2022-08-27T16:53:22.015Z,97058.05
2022-08-27T16:55:52.086Z,97061.92
2022-08-27T16:58:28.114Z,97063.56
2022-08-27T17:00:59.479Z,97065.55
2022-08-27T17:03:30.620Z,97067.17
2022-08-27T17:05:59.078Z,97065.04
2022-08-27T17:08:28.946Z,97066.15
2022-08-27T17:10:57.523Z,97069.07
2022-08-27T17:13:29.205Z,97070.38
2022-08-27T17:15:57.726Z,97075.02
2022-08-27T17:18:28.434Z,97077.05
2022-08-27T17:20:59.241Z,97085.88
2022-08-27T17:23:43.238Z,97087.13
2022-08-27T17:26:13.940Z,97090.82
2022-08-27T17:28:43.768Z,97097.44
2022-08-27T17:31:27.822Z,97103.89
2022-08-27T17:33:59.446Z,97105.45
2022-08-27T17:36:32.101Z,97105.80
2022-08-27T17:39:03.111Z,97108.91
2022-08-27T17:41:36.887Z,97111.66
2022-08-27T17:44:24.098Z,97111.90
2022-08-27T17:46:53.127Z,97113.94
2022-08-27T17:49:21.728Z,97118.30
2022-08-27T17:51:55.414Z,97119.89
2022-08-27T17:54:30.283Z,97121.94
2022-08-27T17:56:59.406Z,97120.45
2022-08-27T17:59:27.658Z,97128.85
2022-08-27T18:01:57.235Z,97134.29
2022-08-27T18:04:27.620Z,97134.44
2022-08-27T18:06:57.059Z,97139.83
2022-08-27T18:09:25.970Z,97138.70
2022-08-27T18:11:56.551Z,97141.02
2022-08-27T18:14:24.935Z,97142.10
2022-08-27T18:16:54.051Z,97148.71
2022-08-27T18:19:22.414Z,97149.66
2022-08-27T18:21:52.202Z,97156.70
2022-08-27T18:24:21.919Z,97160.23
2022-08-27T18:26:50.266Z,97166.78
2022-08-27T18:29:19.051Z,97167.50
2022-08-27T18:31:47.993Z,97164.44
2022-08-27T18:34:20.526Z,97168.19
2022-08-27T18:36:49.467Z,97170.59
2022-08-27T18:39:17.642Z,97172.77
2022-08-27T18:41:46.610Z,97176.08
2022-08-27T18:44:17.378Z,97175.92
2022-08-27T18:46:46.280Z,97176.84
2022-08-27T18:49:14.985Z,97174.66
2022-08-27T18:51:50.576Z,97173.05
2022-08-27T18:54:22.363Z,97179.39
2022-08-27T18:56:51.337Z,97179.32
2022-08-27T18:59:19.885Z,97179.43
2022-08-27T19:01:48.253Z,97180.27
2022-08-27T19:04:18.716Z,97181.17
2022-08-27T19:06:47.236Z,97188.11
2022-08-27T19:09:19.485Z,97197.89
2022-08-27T19:11:47.922Z,97198.36
2022-08-27T19:14:15.981Z,97202.58
2022-08-27T19:16:53.922Z,97201.41
2022-08-27T19:19:25.129Z,97201.48
2022-08-27T19:21:53.233Z,97205.16
2022-08-27T19:24:22.796Z,97209.38
2022-08-27T19:26:53.684Z,97212.45
2022-08-27T19:29:22.171Z,97213.63
2022-08-27T19:31:50.591Z,97218.77
2022-08-27T19:34:18.930Z,97221.61
2022-08-27T19:36:47.646Z,97224.42
2022-08-27T19:39:17.600Z,97224.85
2022-08-27T19:41:45.778Z,97225.96
2022-08-27T19:44:13.856Z,97228.59
2022-08-27T19:46:42.521Z,97232.67
2022-08-27T19:49:10.598Z,97235.08
2022-08-27T19:51:38.951Z,97245.80
2022-08-27T19:54:08.096Z,97247.77
2022-08-27T19:56:37.467Z,97255.91
2022-08-27T19:59:20.418Z,97248.96
2022-08-27T20:01:49.506Z,97247.30
2022-08-27T20:04:17.927Z,97247.45
2022-08-27T20:06:46.198Z,97251.79
2022-08-27T20:09:17.141Z,97253.45
2022-08-27T20:11:46.144Z,97255.11
2022-08-27T20:14:14.320Z,97257.79
2022-08-27T20:16:42.978Z,97255.67
2022-08-27T20:19:11.840Z,97252.41
2022-08-27T20:21:41.299Z,97252.55
2022-08-27T20:24:09.579Z,97252.30
2022-08-27T20:26:38.026Z,97252.87
2022-08-27T20:29:08.892Z,97255.59
2022-08-27T20:31:37.169Z,97255.88
2022-08-27T20:34:07.481Z,97254.23
2022-08-27T20:36:36.274Z,97255.22
2022-08-27T20:39:04.762Z,97256.90
2022-08-27T20:41:33.758Z,97252.78
2022-08-27T20:44:03.537Z,97254.52
2022-08-27T20:46:31.693Z,97255.88
2022-08-27T20:48:59.767Z,97255.56
2022-08-27T20:51:28.202Z,97252.30
2022-08-27T20:53:58.983Z,97255.48
2022-08-27T20:56:27.140Z,97258.02
2022-08-27T20:59:13.869Z,97254.92
2022-08-27T21:01:41.941Z,97255.13
2022-08-27T21:04:11.116Z,97254.77
2022-08-27T21:06:39.191Z,97261.10
2022-08-27T21:09:07.302Z,97261.07
2022-08-27T21:11:35.296Z,97259.73
2022-08-27T21:14:03.413Z,97256.23
2022-08-27T21:16:31.810Z,97256.10
2022-08-27T21:19:00.144Z,97256.00
2022-08-27T21:21:28.397Z,97254.67
2022-08-27T21:23:56.487Z,97254.20
2022-08-27T21:26:24.763Z,97254.63
2022-08-27T21:28:55.947Z,97253.73
2022-08-27T21:31:25.151Z,97252.13
2022-08-27T21:33:55.061Z,97250.67
2022-08-27T21:36:23.161Z,97255.08
2022-08-27T21:38:51.341Z,97253.84
2022-08-27T21:41:20.439Z,97250.46
2022-08-27T21:43:49.881Z,97252.94
2022-08-27T21:46:20.072Z,97252.19
2022-08-27T21:48:58.470Z,97256.58
2022-08-27T21:51:27.718Z,97253.91
2022-08-27T21:53:57.837Z,97250.80
2022-08-27T21:56:27.371Z,97253.68
2022-08-27T21:58:55.390Z,97255.80
2022-08-27T22:01:23.482Z,97255.00
2022-08-27T22:03:51.758Z,97256.11
2022-08-27T22:06:20.274Z,97254.83
2022-08-27T22:08:49.093Z,97253.27
2022-08-27T22:11:21.947Z,97257.30
2022-08-27T22:13:54.112Z,97262.38
2022-08-27T22:16:22.300Z,97259.69
2022-08-27T22:18:54.950Z,97264.19
2022-08-27T22:21:26.503Z,97261.02
2022-08-27T22:23:54.601Z,97260.05
2022-08-27T22:26:25.184Z,97263.21
2022-08-27T22:28:53.264Z,97260.79
2022-08-27T22:31:21.648Z,97261.27
2022-08-27T22:33:49.796Z,97259.13
2022-08-27T22:36:18.141Z,97260.34
2022-08-27T22:38:47.627Z,97261.02
2022-08-27T22:41:18.337Z,97264.34
2022-08-27T22:43:47.197Z,97258.98
2022-08-27T22:46:15.925Z,97261.02
2022-08-27T22:48:43.961Z,97261.36
2022-08-27T22:51:12.513Z,97258.57
2022-08-27T22:53:40.690Z,97260.36
2022-08-27T22:56:09.902Z,97263.30
2022-08-27T22:58:38.069Z,97264.83
2022-08-27T23:01:07.603Z,97269.95
2022-08-27T23:03:36.073Z,97268.14
2022-08-27T23:06:04.259Z,97266.56
2022-08-27T23:08:32.403Z,97265.71
2022-08-27T23:11:03.520Z,97264.30
2022-08-27T23:13:33.259Z,97266.95
2022-08-27T23:16:03.271Z,97271.91
2022-08-27T23:18:32.489Z,97270.98
2022-08-27T23:21:00.587Z,97274.23
2022-08-27T23:23:30.700Z,97277.58
2022-08-27T23:26:18.035Z,97280.94
2022-08-27T23:28:46.296Z,97279.52
2022-08-27T23:31:14.812Z,97281.97
2022-08-27T23:33:43.222Z,97284.47
2022-08-27T23:36:12.718Z,97286.37
2022-08-27T23:38:40.798Z,97286.80
2022-08-27T23:41:08.855Z,97290.99
2022-08-27T23:43:37.046Z,97286.98
2022-08-27T23:46:05.238Z,97280.39
2022-08-27T23:48:33.599Z,97282.85
2022-08-27T23:51:01.719Z,97280.71
2022-08-27T23:53:29.745Z,97287.02
2022-08-27T23:55:57.845Z,97288.34
2022-08-27T23:58:25.933Z,97284.02
